createdAt,value
2022-07-29T00:00:50.338Z,1016.2
2022-07-29T00:06:17.524Z,1016.3
2022-07-29T00:12:07.626Z,1016.3
2022-07-29T00:17:21.586Z,1016.4
2022-07-29T00:23:02.965Z,1016.3
2022-07-29T00:28:38.015Z,1016.3
2022-07-29T00:34:22.450Z,1016.3
2022-07-29T00:39:46.654Z,1016.6
2022-07-29T00:45:34.013Z,1016.7
2022-07-29T00:51:00.734Z,1016.4
2022-07-29T00:56:36.338Z,1016.5
2022-07-29T01:02:14.608Z,1016.7
2022-07-29T01:07:46.321Z,1016.5
2022-07-29T01:13:34.615Z,1016.5
2022-07-29T01:19:05.587Z,1016.5
2022-07-29T01:24:36.194Z,1016.6
2022-07-29T01:30:03.848Z,1016.7
2022-07-29T01:35:42.197Z,1016.8
2022-07-29T01:41:18.299Z,1016.8
2022-07-29T01:46:57.155Z,1016.9
2022-07-29T01:52:29.281Z,1016.7
2022-07-29T01:58:01.907Z,1016.7
2022-07-29T02:03:57.046Z,1016.7
2022-07-29T02:09:17.113Z,1016.8
2022-07-29T02:15:04.745Z,1016.8
2022-07-29T02:20:36.722Z,1016.9
2022-07-29T02:26:12.720Z,1016.9
2022-07-29T02:31:42.744Z,1016.9
2022-07-29T02:37:06.469Z,1016.9
2022-07-29T02:43:02.435Z,1016.8
2022-07-29T02:48:23.713Z,1016.8
2022-07-29T02:54:05.922Z,1016.9
2022-07-29T02:59:49.458Z,1016.9
2022-07-29T03:05:15.028Z,1016.9
2022-07-29T03:10:42.607Z,1016.8
2022-07-29T03:16:19.627Z,1016.9
2022-07-29T03:22:13.829Z,1016.6
2022-07-29T03:27:45.976Z,1016.7
2022-07-29T03:32:58.731Z,1016.7
2022-07-29T03:38:44.750Z,1016.8
2022-07-29T03:44:35.375Z,1016.8
2022-07-29T03:49:49.830Z,1016.9
2022-07-29T03:55:22.878Z,1016.9
2022-07-29T04:01:11.470Z,1016.9
2022-07-29T04:06:37.780Z,1016.9
2022-07-29T04:12:14.183Z,1016.9
2022-07-29T04:18:05.624Z,1017
2022-07-29T04:23:47.585Z,1017
2022-07-29T04:29:01.360Z,1017.1
2022-07-29T04:34:36.872Z,1017.2
2022-07-29T04:40:20.634Z,1017.2
2022-07-29T04:46:01.828Z,1017.1
2022-07-29T04:51:38.779Z,1017.4
2022-07-29T04:56:49.916Z,1017.4
2022-07-29T05:02:30.352Z,1017.4
2022-07-29T05:08:09.133Z,1017
2022-07-29T05:13:53.664Z,1016.8
2022-07-29T05:19:14.717Z,1017.1
2022-07-29T05:24:44.550Z,1017.3
2022-07-29T05:30:31.694Z,1017.4
2022-07-29T05:36:17.506Z,1017.5
2022-07-29T05:41:50.088Z,1017.3
2022-07-29T05:47:04.908Z,1017.4
2022-07-29T05:52:42.958Z,1017.3
2022-07-29T05:58:42.829Z,1017.5
2022-07-29T06:04:15.009Z,1017.5
2022-07-29T06:09:36.843Z,1017.5
2022-07-29T06:15:20.536Z,1017.6
2022-07-29T06:20:41.991Z,1017.7
2022-07-29T06:26:28.496Z,1017.8
2022-07-29T06:31:58.259Z,1017.8
2022-07-29T06:37:25.123Z,1017.9
2022-07-29T06:43:05.661Z,1018
2022-07-29T06:48:50.196Z,1018
2022-07-29T06:54:36.073Z,1018.1
2022-07-29T06:59:56.932Z,1018
2022-07-29T07:05:38.925Z,1017.8
2022-07-29T07:11:20.234Z,1017.8
2022-07-29T07:16:36.801Z,1017.9
2022-07-29T07:22:11.282Z,1017.6
2022-07-29T07:27:46.446Z,1017.7
2022-07-29T07:33:33.943Z,1017.6
2022-07-29T07:39:05.822Z,1017.5
2022-07-29T07:45:04.050Z,1017.2
2022-07-29T07:50:18.827Z,1016.9
2022-07-29T07:56:10.272Z,1016.9
2022-07-29T08:01:25.785Z,1017.1
2022-07-29T08:07:24.740Z,1016.6
2022-07-29T08:13:04.275Z,1016.8
2022-07-29T08:18:43.180Z,1016.7
2022-07-29T08:24:06.901Z,1016.5
2022-07-29T08:30:01.172Z,1016.6
2022-07-29T08:35:33.442Z,1016.7
2022-07-29T08:41:04.838Z,1016.7
2022-07-29T08:46:51.978Z,1016.6
2022-07-29T08:52:19.300Z,1016.3
2022-07-29T08:57:57.302Z,1016.5
2022-07-29T09:03:32.658Z,1016.4
2022-07-29T09:09:15.768Z,1016.2
2022-07-29T09:15:02.931Z,1016.1
2022-07-29T09:20:32.190Z,1016.2
2022-07-29T09:26:05.317Z,1016.1
2022-07-29T09:31:57.169Z,1015.9
2022-07-29T09:37:10.777Z,1015.9
2022-07-29T09:42:50.213Z,1015.9
2022-07-29T09:48:45.719Z,1016
2022-07-29T09:54:26.032Z,1016.1
2022-07-29T10:00:07.342Z,1016.1
2022-07-29T10:05:36.404Z,1016.3
2022-07-29T10:11:18.269Z,1016.2
2022-07-29T10:16:35.422Z,1016.3
2022-07-29T10:22:51.742Z,1016.1
2022-07-29T10:28:04.413Z,1016.1
2022-07-29T10:33:34.485Z,1016.2
2022-07-29T10:39:13.956Z,1015.9
2022-07-29T10:44:41.654Z,1015.8
2022-07-29T10:50:39.556Z,1016.1
2022-07-29T10:56:06.470Z,1016.1
2022-07-29T11:01:36.974Z,1016.1
2022-07-29T11:07:21.697Z,1016.1
2022-07-29T11:12:56.631Z,1016
2022-07-29T11:18:41.384Z,1016.1
2022-07-29T11:24:30.073Z,1016
2022-07-29T11:29:49.895Z,1016
2022-07-29T11:41:10.546Z,1016.1
2022-07-29T11:46:53.822Z,1016
2022-07-29T11:52:13.775Z,1016.1
2022-07-29T11:57:47.290Z,1016
2022-07-29T12:03:35.649Z,1016
2022-07-29T12:09:20.744Z,1016.1
2022-07-29T12:14:46.172Z,1016.1
2022-07-29T12:20:28.123Z,1016.1
2022-07-29T12:25:59.999Z,1016.2
2022-07-29T12:31:41.762Z,1016.4
2022-07-29T12:37:30.916Z,1016.4
2022-07-29T12:42:47.946Z,1016.5
2022-07-29T12:48:45.159Z,1016.6
2022-07-29T12:54:21.329Z,1016.9
2022-07-29T12:59:44.269Z,1017.1
2022-07-29T13:05:25.019Z,1017.6
2022-07-29T13:10:55.111Z,1017.8
2022-07-29T13:16:36.839Z,1017.9
2022-07-29T13:22:24.046Z,1018.4
2022-07-29T13:27:50.597Z,1018.8
2022-07-29T13:33:34.724Z,1019.1
2022-07-29T13:39:02.239Z,1019.4
2022-07-29T13:44:52.280Z,1019.6
2022-07-29T13:50:06.549Z,1019.5
2022-07-29T13:56:01.086Z,1019.4
2022-07-29T14:01:35.582Z,1019.1
2022-07-29T14:07:05.961Z,1019
2022-07-29T14:12:40.346Z,1019
2022-07-29T14:18:30.268Z,1018.9
2022-07-29T14:24:03.888Z,1018.7
2022-07-29T14:29:35.174Z,1018.6
2022-07-29T14:35:03.557Z,1018.6
2022-07-29T14:40:43.751Z,1018.5
2022-07-29T14:46:28.703Z,1018.6
2022-07-29T14:51:57.345Z,1018.6
2022-07-29T14:57:30.837Z,1018.5
2022-07-29T15:03:23.057Z,1018.5
2022-07-29T15:08:58.799Z,1018.3
2022-07-29T15:14:37.868Z,1018.1
2022-07-29T15:19:59.155Z,1017.9
2022-07-29T15:25:29.677Z,1017.9
2022-07-29T15:31:22.853Z,1017.8
2022-07-29T15:37:11.886Z,1017.6
2022-07-29T15:42:30.224Z,1017.7
2022-07-29T15:48:18.974Z,1017.8
2022-07-29T15:53:53.159Z,1017.9
2022-07-29T15:59:42.935Z,1018
2022-07-29T16:04:59.327Z,1017.9
2022-07-29T16:10:44.481Z,1017.9
2022-07-29T16:16:11.198Z,1017.9
2022-07-29T16:21:43.478Z,1018
2022-07-29T16:27:21.389Z,1017.9
2022-07-29T16:33:04.179Z,1017.9
2022-07-29T16:38:47.135Z,1017.9
2022-07-29T16:44:17.398Z,1018
2022-07-29T16:50:00.179Z,1017.9
2022-07-29T16:55:38.693Z,1017.9
2022-07-29T17:01:25.066Z,1017.9
2022-07-29T17:06:52.406Z,1018
2022-07-29T17:12:25.766Z,1017.9
2022-07-29T17:18:11.509Z,1018
2022-07-29T17:23:23.480Z,1017.9
2022-07-29T17:29:05.943Z,1017.9
2022-07-29T17:35:00.053Z,1018
2022-07-29T17:40:12.617Z,1017.9
2022-07-29T17:45:51.617Z,1018.1
2022-07-29T17:51:45.692Z,1018.2
2022-07-29T17:57:11.585Z,1018.2
2022-07-29T18:03:00.706Z,1018.5
2022-07-29T18:08:29.740Z,1018.5
2022-07-29T18:14:25.676Z,1018.6
2022-07-29T18:19:38.201Z,1018.8
2022-07-29T18:25:18.251Z,1018.9
2022-07-29T18:30:57.045Z,1019
2022-07-29T18:36:42.126Z,1019.2
2022-07-29T18:42:04.054Z,1019.4
2022-07-29T18:47:57.378Z,1019.4
2022-07-29T18:53:44.166Z,1019.4
2022-07-29T18:58:59.047Z,1019.5
2022-07-29T19:04:42.911Z,1019.6
2022-07-29T19:10:16.699Z,1019.7
2022-07-29T19:15:51.300Z,1019.8
2022-07-29T19:21:30.376Z,1019.8
2022-07-29T19:27:09.987Z,1019.8
2022-07-29T19:32:55.510Z,1019.9
2022-07-29T19:38:34.629Z,1020
2022-07-29T19:44:08.802Z,1020
2022-07-29T19:49:44.779Z,1020.3
2022-07-29T19:55:18.756Z,1020.4
2022-07-29T20:00:44.286Z,1020.4
2022-07-29T20:06:10.674Z,1020.4
2022-07-29T20:12:05.935Z,1020.4
2022-07-29T20:17:41.689Z,1020.5
2022-07-29T20:22:53.069Z,1020.6
2022-07-29T20:28:28.731Z,1020.4
2022-07-29T20:34:21.698Z,1020.5
2022-07-29T20:39:52.380Z,1020.7
2022-07-29T20:45:18.019Z,1020.7
2022-07-29T20:51:00.215Z,1020.7
2022-07-29T20:56:37.494Z,1020.6
2022-07-29T21:02:19.795Z,1020.6
2022-07-29T21:07:38.384Z,1020.6
2022-07-29T21:13:32.786Z,1020.7
2022-07-29T21:19:11.249Z,1020.7
2022-07-29T21:24:35.732Z,1020.8
2022-07-29T21:29:56.693Z,1020.8
2022-07-29T21:36:03.818Z,1020.9
2022-07-29T21:41:21.274Z,1020.8
2022-07-29T21:46:52.714Z,1020.7
2022-07-29T21:52:25.064Z,1020.8
2022-07-29T21:58:01.359Z,1020.9
2022-07-29T22:03:25.835Z,1020.8
2022-07-29T22:09:05.303Z,1020.8
2022-07-29T22:14:49.516Z,1021
2022-07-29T22:20:19.131Z,1021
2022-07-29T22:26:11.239Z,1021.2
2022-07-29T22:31:26.961Z,1021.2
2022-07-29T22:37:03.782Z,1021.2
2022-07-29T22:42:44.418Z,1021.2
2022-07-29T22:48:04.610Z,1021.2
2022-07-29T22:53:50.229Z,1021.2
2022-07-29T22:59:40.243Z,1020.9
2022-07-29T23:04:55.829Z,1021.1
2022-07-29T23:10:27.103Z,1021
2022-07-29T23:16:12.118Z,1021
2022-07-29T23:21:53.722Z,1021.1
2022-07-29T23:27:30.936Z,1021.2
2022-07-29T23:32:56.063Z,1020.9
2022-07-29T23:38:33.790Z,1020.8
2022-07-29T23:44:06.506Z,1021.1
2022-07-29T23:49:35.848Z,1021.2
2022-07-29T23:55:36.032Z,1021.1
